Terminal Aerodrome Forecast
Issued by NWS

Home | Current Version | Previous Version | Text Only | Print | Product List | Glossary Off
Versions: 1 2 3 4 5 6 7 8 9 10 11 12 13 14 15 16 17

000
FTUS43 KOAX 290500
TAFCDR
TAF
KCDR 290540Z 2906/3006 05008KT 3SM -SHRA SCT007 BKN015
     FM291600 02009KT P6SM VCSH SCT015 BKN025
     FM292000 03009KT P6SM VCTS SCT025CB BKN040=

USA.gov is the U.S. government's official web portal to all federal, state and local government web resources and services.